Aeroporto :
LOGIN :

Iscrizione | Disclaimer

   EN    FR    IT 

 










Sommario :    VFR   VFR Marginale   IFR   IFR Intensivo   IFR Molto Intensivo
Visibilità : 
Base nubi : 
>= 8 km
>= 3000ft
5 / 8 km
1000 / 3000 ft
1500m / 5 km
500 / 1000 ft
800 / 1500m
200 / 500 ft
< 800m
< 200 ft
Simboli :   Temporali  Nebbia  Neve Forte  Precipitazioni Forti  Vento > 20 kt
SIGMETs :   Varie  Temporali  Ghiacco  Turbolenza  Onda orograficha  Ceneri Vulcaniche






- Altitudine del aeroporto : 512 ft
- Codice IATA : URO


LFOP - Rouen Vallée de Seine

ULTIMO METAR :
  • 031900Z AUTO 16013KT 9999 -RA BKN004 OVC009 06/06 Q0981 TEMPO 18017G27KT 3000 RA BKN004 OVC013CB

METARs OBSOLETI :
  • 031830Z AUTO 16012KT 9999 BKN006 OVC013 06/06 Q0982 TEMPO 18017G27KT 3000 RA BKN004 OVC013CB
  • 031800Z AUTO 17009KT 6000 -RA OVC005 06/06 Q0982 TEMPO 18015G25KT 3000 RA
  • 031730Z AUTO 17009KT 9999 -RA OVC008 06/06 Q0983 TEMPO 18015G25KT 3000 RA BKN004 OVC013
  • 031700Z AUTO 17012KT 9999 -RA OVC009 06/06 Q0984 TEMPO 18015G25KT 3000 RA BKN004 OVC013
  • 031630Z AUTO 17013KT 9000 -RA BKN006 OVC012 06/06 Q0985 TEMPO 18015G25KT 3000 RA BKN004 OVC013

TAF TAF LFOP
Valido dal 03 a 18 ore il 04 a 18 ore UTC


031700Z 0318/0418 18013KT 9999 BKN013 OVC030
TEMPO 0318/0402 18017G27KT 3000 RA BKN004 OVC013CB
BECMG 0402/0404 22015G25KT BKN018
PROB40
TEMPO 0402/0413 3000 SHRAGS BKN013CB
PROB30
TEMPO 0404/0412 1200 SHSN
BECMG 0406/0408 21013KT
ATIS : +33 2 35 80 80 34
Met : +33 2 32 86 52 80



MetMap, La meteo Aeronautica in un colpo d'occhio ! - Copyright ORBIFLY Dicembre 2007 - Disclaimer

ORBIFLY MET'MAP TEAM :

Programmazione e sviluppo : Alexandra Zaïnal
Concezione : Baudouin d'Aumeries
Aiuto per la programmazione : Marc-Olivier Méhu
Supporto tecnico e logistico : Manuel Goepfert
Aiuto per la traduzione : Arnaldo La Scala

Contatto : metmap@orbifly.com




FONTI E CREDITI :

   NOAA